Time;durP1;ratioP1;P1;durP2;ratioP2;P2;SDS_P1;SDS_P2;PMS_P1;PMS_P2;Temp;Humidity;BMP_temperature;BMP_pressure;BME280_temperature;BME280_humidity;BME280_pressure;Samples;Min_cycle;Max_cycle;Signal;HPM_P1;HPM_P2
2022/01/29 00:00:37;;;;;;;14.43;8.40;;;1.40;99.90;;;;;;4980484;28;20023;-96
2022/01/29 00:03:03;;;;;;;13.00;7.80;;;1.40;99.90;;;;;;4983592;28;20034;-96
2022/01/29 00:05:58;;;;;;;14.35;8.57;;;1.50;99.90;;;;;;4991405;28;20070;-96
2022/01/29 00:08:24;;;;;;;11.90;7.38;;;1.40;99.90;;;;;;4983213;28;20031;-96
2022/01/29 00:10:55;;;;;;;11.32;7.38;;;1.40;99.90;;;;;;4979416;28;20351;-94
2022/01/29 00:13:21;;;;;;;12.35;7.95;;;1.40;99.90;;;;;;4977296;28;20081;-96
2022/01/29 00:15:47;;;;;;;12.10;7.93;;;1.40;99.90;;;;;;4977300;28;20035;-96
2022/01/29 00:18:14;;;;;;;11.63;7.82;;;1.40;99.90;;;;;;4982303;28;20023;-96
2022/01/29 00:20:39;;;;;;;10.65;7.38;;;1.40;99.90;;;;;;4977784;28;20435;-96
2022/01/29 00:23:05;;;;;;;10.13;6.57;;;1.40;99.90;;;;;;4976951;28;20027;-96
2022/01/29 00:25:32;;;;;;;10.00;6.70;;;1.40;99.90;;;;;;4978727;28;20031;-96
2022/01/29 00:27:59;;;;;;;9.85;6.40;;;1.40;99.90;;;;;;4982061;28;20037;-96
2022/01/29 00:30:31;;;;;;;10.13;6.97;;;1.40;99.90;;;;;;4982474;28;20023;-96
2022/01/29 00:32:57;;;;;;;10.35;6.60;;;1.40;99.90;;;;;;4977611;28;20086;-95
2022/01/29 00:35:23;;;;;;;10.93;7.30;;;1.40;99.90;;;;;;4978518;28;20031;-95
2022/01/29 00:37:49;;;;;;;12.05;7.13;;;1.40;99.90;;;;;;4978430;28;20023;-96
2022/01/29 00:40:14;;;;;;;11.07;6.50;;;1.40;99.90;;;;;;4977069;28;20499;-96
2022/01/29 00:42:41;;;;;;;9.63;6.68;;;1.40;99.90;;;;;;4976293;28;20023;-95
2022/01/29 00:45:07;;;;;;;8.50;5.95;;;1.40;99.90;;;;;;4976649;28;20469;-96
2022/01/29 00:47:33;;;;;;;10.48;6.57;;;1.40;99.90;;;;;;4977350;28;20058;-96
2022/01/29 00:49:59;;;;;;;10.57;6.40;;;1.40;99.90;;;;;;4978431;28;20026;-96
2022/01/29 00:52:27;;;;;;;10.40;6.63;;;1.30;99.90;;;;;;4988990;28;20034;-96
2022/01/29 01:00:13;;;;;;;10.00;6.55;;;1.30;99.90;;;;;;5107260;23;20058;-95
2022/01/29 01:05:41;;;;;;;9.63;6.18;;;1.30;99.90;;;;;;5099934;23;20050;-96
2022/01/29 01:08:11;;;;;;;12.50;6.32;;;1.30;99.90;;;;;;4986339;28;20030;-96
2022/01/29 01:10:49;;;;;;;10.40;6.78;;;1.20;99.90;;;;;;5012209;28;20043;-96
2022/01/29 01:13:24;;;;;;;9.90;6.38;;;1.30;99.90;;;;;;5004346;28;20030;-96
2022/01/29 01:16:13;;;;;;;8.50;6.05;;;1.30;99.90;;;;;;4996272;28;20034;-96
2022/01/29 01:18:38;;;;;;;9.73;6.32;;;1.30;99.90;;;;;;4997416;28;20050;-96
2022/01/29 01:21:10;;;;;;;8.43;5.63;;;1.30;99.90;;;;;;5000679;28;20026;-96
2022/01/29 01:23:47;;;;;;;8.75;5.90;;;1.30;99.90;;;;;;5004646;28;20026;-96
2022/01/29 01:26:31;;;;;;;10.40;6.32;;;1.30;99.90;;;;;;5163089;23;20050;-96
2022/01/29 01:28:57;;;;;;;9.77;5.97;;;1.40;99.90;;;;;;5002498;28;20016;-96
2022/01/29 01:31:23;;;;;;;7.90;4.95;;;1.40;99.90;;;;;;4986506;28;20026;-93
2022/01/29 01:33:53;;;;;;;8.05;5.18;;;1.40;99.90;;;;;;5051344;23;20113;-96
2022/01/29 01:39:05;;;;;;;6.47;4.57;;;1.40;99.90;;;;;;5206832;23;19921;-92
2022/01/29 01:41:37;;;;;;;6.90;4.70;;;1.40;99.90;;;;;;5000712;28;20042;-96
2022/01/29 01:44:15;;;;;;;7.38;4.70;;;1.40;99.90;;;;;;5002974;28;20222;-96
2022/01/29 01:46:41;;;;;;;5.97;4.82;;;1.40;99.90;;;;;;5167762;23;20062;-96
2022/01/29 02:03:23;;;;;;;6.75;4.45;;;1.40;99.90;;;;;;5679794;23;20036;-96
2022/01/29 02:13:37;;;;;;;6.13;4.22;;;1.30;99.90;;;;;;5738461;23;20054;-93
2022/01/29 02:18:40;;;;;;;8.68;4.75;;;1.40;99.90;;;;;;5992097;23;20872;31
2022/01/29 02:30:18;;;;;;;4.72;3.63;;;1.40;99.90;;;;;;6105985;23;20781;31
2022/01/29 03:03:51;;;;;;;4.78;3.17;;;1.30;99.90;;;;;;1723390;23;20234;-94
2022/01/29 03:10:08;;;;;;;4.53;3.38;;;1.30;99.90;;;;;;5008130;28;20053;-96
2022/01/29 03:12:37;;;;;;;5.38;3.58;;;1.30;99.90;;;;;;4996021;28;20080;-96
2022/01/29 03:15:30;;;;;;;4.60;3.80;;;1.30;99.90;;;;;;4994395;28;20030;-96
2022/01/29 03:18:04;;;;;;;4.07;3.50;;;1.30;99.90;;;;;;5006975;28;20007;-96
2022/01/29 03:23:34;;;;;;;3.92;3.28;;;1.20;99.90;;;;;;5063538;23;20493;-96
2022/01/29 03:26:04;;;;;;;4.82;3.65;;;1.20;99.90;;;;;;5136375;23;20054;-96
2022/01/29 03:28:54;;;;;;;4.13;3.45;;;1.20;99.90;;;;;;4995007;28;20034;-95
2022/01/29 03:31:31;;;;;;;4.55;3.20;;;1.20;99.90;;;;;;5120753;23;20046;-96
2022/01/29 03:36:44;;;;;;;3.60;3.03;;;1.30;99.90;;;;;;5032276;23;20064;-96
2022/01/29 03:39:20;;;;;;;4.93;3.60;;;1.30;99.90;;;;;;4996479;28;20056;-96
2022/01/29 03:42:15;;;;;;;;;;;1.30;99.90;;;;;;5787356;23;20810;-94
2022/01/29 04:06:15;;;;;;;3.17;2.53;;;1.20;99.90;;;;;;5391302;23;20058;-96
2022/01/29 04:14:57;;;;;;;4.07;2.80;;;1.20;99.90;;;;;;5250935;23;20049;-96
2022/01/29 04:17:23;;;;;;;3.45;3.03;;;1.10;99.90;;;;;;4985693;28;20030;-96
2022/01/29 04:19:49;;;;;;;3.72;2.47;;;1.10;99.90;;;;;;4987062;28;20022;-96
2022/01/29 04:22:14;;;;;;;3.65;2.75;;;1.10;99.90;;;;;;4987833;28;20468;-96
2022/01/29 04:24:40;;;;;;;3.17;2.65;;;1.20;99.90;;;;;;4993153;28;20023;-96
2022/01/29 04:27:17;;;;;;;4.38;2.85;;;1.10;99.90;;;;;;4989965;28;20038;-96
2022/01/29 04:30:11;;;;;;;3.33;2.65;;;1.10;99.90;;;;;;4998936;28;20090;-96
2022/01/29 04:36:18;;;;;;;3.42;2.83;;;1.10;99.90;;;;;;5044411;23;20038;-96
2022/01/29 04:39:10;;;;;;;3.75;2.92;;;1.10;99.90;;;;;;4975417;28;20041;-96
2022/01/29 04:50:38;;;;;;;4.93;2.75;;;1.10;99.90;;;;;;5608483;23;20061;-96
2022/01/29 04:53:12;;;;;;;3.60;2.83;;;1.10;99.90;;;;;;5166812;23;20029;31
2022/01/29 04:58:13;;;;;;;3.30;2.70;;;1.10;99.90;;;;;;5775634;23;20748;-95
2022/01/29 15:02:45;;;;;;;8.52;4.47;;;0.50;99.90;;;;;;5092736;27;20378;-91
2022/01/29 15:05:11;;;;;;;8.50;4.90;;;0.50;99.90;;;;;;5090787;28;20082;-92
2022/01/29 15:07:37;;;;;;;7.78;3.90;;;0.50;99.90;;;;;;5090768;28;20058;-91
2022/01/29 15:10:05;;;;;;;94.70;30.40;;;0.60;99.90;;;;;;5090578;28;20482;-92
2022/01/29 15:12:31;;;;;;;11.07;5.05;;;0.60;99.90;;;;;;5090785;28;20080;-95
2022/01/29 15:14:57;;;;;;;14.55;8.35;;;0.60;99.90;;;;;;5073364;28;20485;-93
2022/01/29 15:17:23;;;;;;;10.60;5.63;;;0.60;99.90;;;;;;5090708;28;20024;-93
2022/01/29 15:19:48;;;;;;;9.45;5.05;;;0.70;99.90;;;;;;5090512;28;20046;-92
2022/01/29 15:22:16;;;;;;;7.32;4.38;;;0.60;99.90;;;;;;5090539;28;20119;-91
2022/01/29 15:24:42;;;;;;;5.38;4.07;;;0.70;99.90;;;;;;5090381;28;20020;-93
2022/01/29 15:27:08;;;;;;;6.40;3.67;;;0.70;99.90;;;;;;5090559;28;20016;-91
2022/01/29 15:29:35;;;;;;;8.13;5.35;;;0.60;99.90;;;;;;5090259;28;20025;-93
2022/01/29 15:32:01;;;;;;;9.85;4.80;;;0.70;99.90;;;;;;5090329;28;20020;-93
2022/01/29 15:34:27;;;;;;;14.15;7.20;;;0.70;99.90;;;;;;5091149;28;20025;-93
2022/01/29 15:36:53;;;;;;;12.15;6.00;;;0.70;99.90;;;;;;5090084;28;20028;-88
2022/01/29 15:39:21;;;;;;;12.38;7.78;;;0.70;99.90;;;;;;5090145;28;20055;-91
2022/01/29 15:41:47;;;;;;;8.48;4.80;;;0.70;99.90;;;;;;5090216;28;20021;-95
2022/01/29 15:44:13;;;;;;;7.68;5.10;;;0.70;99.90;;;;;;5090083;28;20029;-94
2022/01/29 15:46:38;;;;;;;11.55;4.82;;;0.70;99.90;;;;;;5090314;28;20547;-91
2022/01/29 15:49:04;;;;;;;9.75;6.10;;;0.70;99.90;;;;;;5090083;28;20024;-93
2022/01/29 15:51:30;;;;;;;10.73;5.40;;;0.70;99.90;;;;;;5090017;28;20115;-93
2022/01/29 15:53:57;;;;;;;7.22;4.80;;;0.70;99.90;;;;;;5090675;28;20036;-93
2022/01/29 15:56:22;;;;;;;6.80;3.80;;;0.70;99.90;;;;;;5089978;28;20025;-92
2022/01/29 15:58:48;;;;;;;8.27;5.82;;;0.60;99.90;;;;;;5089941;28;20028;-94
2022/01/29 16:01:14;;;;;;;22.30;9.98;;;0.60;99.90;;;;;;5089468;28;20049;-95
2022/01/29 16:03:39;;;;;;;64.45;26.52;;;0.70;99.90;;;;;;5090031;28;20484;-95
2022/01/29 16:06:05;;;;;;;12.90;7.47;;;0.70;99.90;;;;;;5089760;28;20107;-93
2022/01/29 16:08:33;;;;;;;26.13;17.15;;;0.70;99.90;;;;;;5091070;28;20028;-88
2022/01/29 16:10:58;;;;;;;9.88;7.15;;;0.70;99.90;;;;;;5089274;28;20036;-88
2022/01/29 16:13:26;;;;;;;8.45;5.15;;;0.70;99.90;;;;;;5080032;28;20031;-88
2022/01/29 16:15:53;;;;;;;5.97;3.63;;;0.70;99.90;;;;;;5076384;28;20024;-88
2022/01/29 16:18:19;;;;;;;9.73;5.93;;;0.70;99.90;;;;;;5075861;28;20067;-88
2022/01/29 16:20:45;;;;;;;12.63;6.38;;;0.70;99.90;;;;;;5077079;28;20090;-88
2022/01/29 16:23:12;;;;;;;8.88;6.05;;;0.70;99.90;;;;;;5075805;28;20025;-88
2022/01/29 16:25:40;;;;;;;7.75;4.60;;;0.60;99.90;;;;;;5075815;28;20028;-88
2022/01/29 16:28:06;;;;;;;7.25;4.05;;;0.70;99.90;;;;;;5076733;28;20031;-88
2022/01/29 16:30:33;;;;;;;5.60;4.05;;;0.60;99.90;;;;;;5075869;28;20025;-89
2022/01/29 16:32:58;;;;;;;5.70;3.80;;;0.60;99.90;;;;;;5075660;28;20043;-89
2022/01/29 16:35:25;;;;;;;11.82;8.35;;;0.60;99.90;;;;;;5075804;28;20028;-88
2022/01/29 16:37:51;;;;;;;10.15;6.65;;;0.60;99.90;;;;;;5075355;28;20032;-89
2022/01/29 16:40:17;;;;;;;9.00;5.50;;;0.60;99.90;;;;;;5075545;28;20056;-88
2022/01/29 16:42:42;;;;;;;10.27;6.07;;;0.60;99.90;;;;;;5075326;28;20029;-90
2022/01/29 16:45:10;;;;;;;7.82;4.32;;;0.60;99.90;;;;;;5075380;28;20027;-89
2022/01/29 16:47:36;;;;;;;5.72;3.72;;;0.60;99.90;;;;;;5075293;28;20024;-89
2022/01/29 16:50:02;;;;;;;9.45;3.80;;;0.60;99.90;;;;;;5075400;28;20029;-89
2022/01/29 16:52:28;;;;;;;4.15;2.75;;;0.60;99.90;;;;;;5075389;28;20051;-89
2022/01/29 16:54:53;;;;;;;5.68;3.15;;;0.60;99.90;;;;;;5075499;28;20025;-89
2022/01/29 16:57:19;;;;;;;8.82;4.40;;;0.60;99.90;;;;;;5075115;28;20036;-89
2022/01/29 16:59:45;;;;;;;7.97;4.20;;;0.60;99.90;;;;;;5076328;28;20378;-89
2022/01/29 17:02:16;;;;;;;6.30;3.58;;;0.60;99.90;;;;;;5074594;28;20045;-90
2022/01/29 17:04:46;;;;;;;5.70;3.42;;;0.60;99.90;;;;;;5074948;28;20051;-88
2022/01/29 17:07:13;;;;;;;7.78;4.45;;;0.50;99.90;;;;;;5075056;28;20107;-89
2022/01/29 17:09:39;;;;;;;9.30;4.10;;;0.50;99.90;;;;;;5074556;28;20059;-89
2022/01/29 17:12:06;;;;;;;10.73;4.75;;;0.60;99.90;;;;;;5075163;28;20082;-89
2022/01/29 17:14:32;;;;;;;6.75;4.55;;;0.60;99.90;;;;;;5074322;28;20028;-89
2022/01/29 17:16:57;;;;;;;8.05;4.80;;;0.60;99.90;;;;;;5075496;28;20115;-90
2022/01/29 17:19:23;;;;;;;10.52;4.97;;;0.60;99.90;;;;;;5074905;28;20036;-90
2022/01/29 17:21:50;;;;;;;7.38;3.88;;;0.60;99.90;;;;;;5075594;28;20035;-89
2022/01/29 17:24:15;;;;;;;9.57;5.68;;;0.60;99.90;;;;;;5073913;28;20074;-89
2022/01/29 17:26:47;;;;;;;5.43;3.30;;;0.60;99.90;;;;;;5074561;28;20016;-89
2022/01/29 17:29:13;;;;;;;6.30;3.60;;;0.60;99.90;;;;;;5074522;28;20074;-89
2022/01/29 17:31:39;;;;;;;8.60;3.50;;;0.50;99.90;;;;;;5074529;28;20032;-88
2022/01/29 17:34:08;;;;;;;7.13;3.92;;;0.50;99.90;;;;;;5074295;28;20021;-89
2022/01/29 17:36:35;;;;;;;6.32;3.65;;;0.50;99.90;;;;;;5074399;28;20056;-89
2022/01/29 17:39:01;;;;;;;5.78;3.30;;;0.50;99.90;;;;;;5074443;28;20098;-89
2022/01/29 17:41:27;;;;;;;6.68;3.10;;;0.50;99.90;;;;;;5073987;28;20469;-88
2022/01/29 17:43:53;;;;;;;6.93;3.63;;;0.50;99.90;;;;;;5074311;28;20024;-89
2022/01/29 17:46:19;;;;;;;6.90;4.28;;;0.50;99.90;;;;;;5074166;28;20017;-89
2022/01/29 17:48:44;;;;;;;6.75;3.00;;;0.50;99.90;;;;;;5074012;28;20424;-89
2022/01/29 17:51:10;;;;;;;4.18;2.83;;;0.50;99.90;;;;;;5074358;28;20025;-94
2022/01/29 17:53:37;;;;;;;6.22;3.22;;;0.50;99.90;;;;;;5074294;28;20029;-89
2022/01/29 17:56:07;;;;;;;4.40;3.10;;;0.50;99.90;;;;;;5073843;28;20025;-88
2022/01/29 17:58:35;;;;;;;7.65;3.78;;;0.50;99.90;;;;;;5074439;28;20115;-94
2022/01/29 18:01:02;;;;;;;5.82;3.88;;;0.50;99.90;;;;;;5073462;28;20045;-89
2022/01/29 18:03:28;;;;;;;5.28;3.58;;;0.40;99.90;;;;;;5073876;28;20036;-89
2022/01/29 18:05:54;;;;;;;6.03;3.92;;;0.40;99.90;;;;;;5073846;28;20052;-90
2022/01/29 18:08:20;;;;;;;6.43;3.85;;;0.40;99.90;;;;;;5073537;28;20052;-89
2022/01/29 18:10:46;;;;;;;9.20;5.50;;;0.50;99.90;;;;;;5073964;28;20035;-89
2022/01/29 18:13:13;;;;;;;5.85;4.57;;;0.50;99.90;;;;;;5073794;28;20024;-89
2022/01/29 18:15:40;;;;;;;5.50;4.28;;;0.40;99.90;;;;;;5073805;28;20382;-88
2022/01/29 18:18:06;;;;;;;5.85;4.10;;;0.40;99.90;;;;;;5073492;28;20122;-88
2022/01/29 18:20:31;;;;;;;9.23;6.50;;;0.50;99.90;;;;;;5073524;28;20111;-88
2022/01/29 18:22:57;;;;;;;6.80;4.65;;;0.40;99.90;;;;;;5073371;28;20462;-89
2022/01/29 18:25:24;;;;;;;4.97;3.35;;;0.40;99.90;;;;;;5073485;28;20021;-88
2022/01/29 18:27:55;;;;;;;6.03;3.80;;;0.40;99.90;;;;;;5073352;28;20031;-88
2022/01/29 18:30:20;;;;;;;5.13;3.88;;;0.50;99.90;;;;;;5073480;28;20484;-88
2022/01/29 18:32:46;;;;;;;6.03;4.50;;;0.40;99.90;;;;;;5073483;28;20028;-88
2022/01/29 18:35:12;;;;;;;6.75;4.38;;;0.40;99.90;;;;;;5073335;28;20086;-88
2022/01/29 18:37:38;;;;;;;6.18;3.83;;;0.40;99.90;;;;;;5073315;28;20029;-88
2022/01/29 18:40:11;;;;;;;9.73;4.75;;;0.40;99.90;;;;;;5073037;28;20025;-88
2022/01/29 18:42:37;;;;;;;5.40;3.28;;;0.50;99.90;;;;;;5073329;28;20056;-90
2022/01/29 18:45:10;;;;;;;18.08;8.40;;;0.40;99.90;;;;;;5073207;28;20489;-90
2022/01/29 18:47:35;;;;;;;18.02;7.22;;;0.40;99.90;;;;;;5073223;28;20404;-89
2022/01/29 18:50:01;;;;;;;18.25;8.20;;;0.50;99.90;;;;;;5073044;28;20111;-89
2022/01/29 18:52:27;;;;;;;5.95;3.17;;;0.40;99.90;;;;;;5073161;28;20024;-90
2022/01/29 18:54:53;;;;;;;12.13;5.97;;;0.50;99.90;;;;;;5073257;28;20367;-89
2022/01/29 18:57:19;;;;;;;17.90;6.20;;;0.40;99.90;;;;;;5073114;28;20028;-89
2022/01/29 18:59:44;;;;;;;19.38;7.60;;;0.40;99.90;;;;;;5072803;28;20437;-89
2022/01/29 19:02:10;;;;;;;15.73;7.55;;;0.40;99.90;;;;;;5074000;28;20040;-89
2022/01/29 19:04:36;;;;;;;13.60;6.30;;;0.40;99.90;;;;;;5056345;28;20028;-89
2022/01/29 19:07:02;;;;;;;8.27;4.00;;;0.40;99.90;;;;;;5056348;28;20077;-90
2022/01/29 19:09:28;;;;;;;8.35;4.28;;;0.50;99.90;;;;;;5056145;28;20048;-89
2022/01/29 19:11:53;;;;;;;7.43;4.18;;;0.40;99.90;;;;;;5056075;28;20033;-89
2022/01/29 19:14:19;;;;;;;11.15;7.53;;;0.40;99.90;;;;;;5056297;28;20020;-89
2022/01/29 19:16:46;;;;;;;8.15;3.88;;;0.50;99.90;;;;;;5056356;28;20078;-89
2022/01/29 19:19:13;;;;;;;4.13;2.88;;;0.50;99.90;;;;;;5056272;28;20485;-89
2022/01/29 19:21:39;;;;;;;35.50;14.60;;;0.40;99.90;;;;;;5056085;28;20029;-87
2022/01/29 19:24:06;;;;;;;11.98;5.22;;;0.50;99.90;;;;;;5055788;28;20074;-87
2022/01/29 19:26:32;;;;;;;7.47;3.50;;;0.50;99.90;;;;;;5056053;28;20024;-87
2022/01/29 19:28:58;;;;;;;16.50;8.07;;;0.40;99.90;;;;;;5056556;28;20024;-87
2022/01/29 19:31:27;;;;;;;7.20;3.78;;;0.50;99.90;;;;;;5055957;28;20028;-89
2022/01/29 19:33:53;;;;;;;3.13;2.50;;;0.50;99.90;;;;;;5056058;28;20027;-89
2022/01/29 19:36:19;;;;;;;4.78;2.83;;;0.50;99.90;;;;;;5056184;28;20021;-89
2022/01/29 19:38:45;;;;;;;5.53;3.30;;;0.50;99.90;;;;;;5055578;28;20035;-89
2022/01/29 19:41:11;;;;;;;4.50;3.10;;;0.50;99.90;;;;;;5073802;28;20032;-89
2022/01/29 19:43:37;;;;;;;4.57;3.15;;;0.50;99.90;;;;;;5056013;28;20021;-88
2022/01/29 19:46:05;;;;;;;7.40;3.08;;;0.50;99.90;;;;;;5056005;28;20111;-89
2022/01/29 19:48:32;;;;;;;5.60;3.00;;;0.40;99.90;;;;;;5057941;28;20111;-89
2022/01/29 19:50:58;;;;;;;4.72;2.83;;;0.40;99.90;;;;;;5059816;28;20027;-89
2022/01/29 19:53:25;;;;;;;5.00;3.38;;;0.40;99.90;;;;;;5059659;28;20024;-89
2022/01/29 19:55:51;;;;;;;3.72;2.83;;;0.40;99.90;;;;;;5059695;28;20032;-88
2022/01/29 19:58:16;;;;;;;7.25;3.58;;;0.40;99.90;;;;;;5059801;28;20055;-89
2022/01/29 20:00:42;;;;;;;5.15;2.60;;;0.40;99.90;;;;;;5059216;28;20502;-89
2022/01/29 20:03:08;;;;;;;3.92;2.65;;;0.40;99.90;;;;;;5059368;28;20016;-89
2022/01/29 20:05:35;;;;;;;4.43;2.60;;;0.40;99.90;;;;;;5060107;28;20021;-89
2022/01/29 20:08:02;;;;;;;4.28;3.15;;;0.40;99.90;;;;;;5059212;28;20021;-89
2022/01/29 20:10:30;;;;;;;2.92;2.33;;;0.40;99.90;;;;;;5059243;28;20460;-90
2022/01/29 20:12:56;;;;;;;4.32;2.53;;;0.30;99.90;;;;;;5059338;28;20031;-89
2022/01/29 20:15:22;;;;;;;5.07;2.53;;;0.30;99.90;;;;;;5059123;28;20016;-88
2022/01/29 20:17:49;;;;;;;3.95;2.85;;;0.30;99.90;;;;;;5059347;28;20112;-89
2022/01/29 20:20:16;;;;;;;3.50;2.78;;;0.30;99.90;;;;;;5059318;28;20466;-89
2022/01/29 20:22:42;;;;;;;5.20;2.97;;;0.30;99.90;;;;;;5059005;28;20036;-89
2022/01/29 20:25:09;;;;;;;5.18;3.08;;;0.30;99.90;;;;;;5059119;28;20024;-89
2022/01/29 20:27:40;;;;;;;4.68;2.88;;;0.30;99.90;;;;;;5059122;28;20032;-89
2022/01/29 20:30:09;;;;;;;;;;;0.30;99.90;;;;;;5059971;28;20047;-89
2022/01/29 20:32:35;;;;;;;4.50;3.05;;;0.20;99.90;;;;;;5058952;28;19905;-89
2022/01/29 20:35:03;;;;;;;4.20;3.05;;;0.20;99.90;;;;;;5058871;28;20024;-89
2022/01/29 20:37:28;;;;;;;7.25;4.30;;;0.20;99.90;;;;;;5058899;28;20028;-89
2022/01/29 20:39:54;;;;;;;6.97;5.20;;;0.20;99.90;;;;;;5076659;28;20020;-89
2022/01/29 20:42:21;;;;;;;10.63;5.90;;;0.20;99.90;;;;;;5058687;28;20028;-89
2022/01/29 20:44:46;;;;;;;10.27;6.40;;;0.20;99.90;;;;;;5058869;28;20044;-89
2022/01/29 20:47:12;;;;;;;7.28;4.90;;;0.20;99.90;;;;;;5058820;28;20131;-89
2022/01/29 20:49:38;;;;;;;7.18;4.30;;;0.20;99.90;;;;;;5058444;28;20032;-88
2022/01/29 20:52:04;;;;;;;9.57;4.90;;;0.20;99.90;;;;;;5058449;28;20031;-88
2022/01/29 20:54:30;;;;;;;8.63;4.55;;;0.20;99.90;;;;;;5058332;28;20024;-88
2022/01/29 20:56:56;;;;;;;11.98;5.40;;;0.20;99.90;;;;;;5076373;28;20486;-87
2022/01/29 20:59:21;;;;;;;8.00;5.03;;;0.20;99.90;;;;;;5058234;28;20421;-87
2022/01/29 21:01:47;;;;;;;11.18;6.90;;;0.10;99.90;;;;;;5067117;28;20102;-87
2022/01/29 21:04:13;;;;;;;6.35;4.50;;;0.10;99.90;;;;;;5075134;28;20029;-87
2022/01/29 21:06:40;;;;;;;7.05;4.43;;;0.10;99.90;;;;;;5075134;28;20074;-87
2022/01/29 21:09:07;;;;;;;9.60;5.78;;;0.10;99.90;;;;;;5076156;28;20024;-87
2022/01/29 21:11:36;;;;;;;11.90;7.07;;;0.10;99.90;;;;;;5076101;28;20036;-88
2022/01/29 21:14:03;;;;;;;8.35;5.18;;;0.10;99.90;;;;;;5074864;28;20081;-88
2022/01/29 21:16:29;;;;;;;10.82;5.55;;;0.10;99.90;;;;;;5074716;28;20064;-87
2022/01/29 21:18:56;;;;;;;6.25;4.25;;;0.10;99.90;;;;;;5074739;28;20119;-89
2022/01/29 21:21:21;;;;;;;8.60;4.53;;;0.00;99.90;;;;;;5074513;28;20029;-87
2022/01/29 21:23:49;;;;;;;11.00;5.43;;;0.00;99.90;;;;;;5075859;28;20351;-88
2022/01/29 21:26:15;;;;;;;8.23;3.70;;;0.00;99.90;;;;;;5074380;28;20028;-87
2022/01/29 21:28:41;;;;;;;8.93;4.07;;;0.00;99.90;;;;;;5074537;28;20024;-87
2022/01/29 21:31:07;;;;;;;12.70;5.10;;;0.00;99.90;;;;;;5057765;28;20170;-87
2022/01/29 21:33:32;;;;;;;11.90;4.90;;;0.00;99.90;;;;;;5074333;28;20039;-88
2022/01/29 21:35:58;;;;;;;9.60;4.60;;;0.00;99.90;;;;;;5074143;28;20027;-88
2022/01/29 21:38:25;;;;;;;7.60;4.00;;;0.00;99.90;;;;;;5074231;28;20028;-88
2022/01/29 21:40:51;;;;;;;6.50;3.35;;;-0.10;99.90;;;;;;5074113;28;20020;-88
2022/01/29 21:43:17;;;;;;;4.45;3.30;;;-0.10;99.50;;;;;;5075364;28;20020;-87
2022/01/29 21:45:44;;;;;;;8.88;3.90;;;-0.10;99.60;;;;;;5074177;28;20017;-88
2022/01/29 21:48:10;;;;;;;8.80;4.82;;;-0.10;97.80;;;;;;5075106;28;20017;-88
2022/01/29 21:50:36;;;;;;;6.05;3.25;;;-0.20;98.50;;;;;;5074095;28;20029;-87
2022/01/29 21:53:03;;;;;;;6.10;3.15;;;-0.20;98.70;;;;;;5073912;28;20107;-87
2022/01/29 21:55:29;;;;;;;6.00;2.67;;;-0.20;98.50;;;;;;5073956;28;20021;-87
2022/01/29 21:57:55;;;;;;;4.47;3.00;;;-0.20;98.90;;;;;;5074025;28;20016;-87
2022/01/29 22:00:22;;;;;;;3.88;2.45;;;-0.20;98.10;;;;;;5073562;28;20020;-87
2022/01/29 22:02:48;;;;;;;5.68;2.80;;;-0.20;98.00;;;;;;5057105;28;20025;-87
2022/01/29 22:05:14;;;;;;;8.85;3.58;;;-0.20;98.30;;;;;;5056840;28;20024;-86
2022/01/29 22:07:40;;;;;;;8.55;3.42;;;-0.20;98.80;;;;;;5057162;28;20025;-87
2022/01/29 22:10:07;;;;;;;5.60;2.90;;;-0.10;99.30;;;;;;5056602;28;20029;-87
2022/01/29 22:12:33;;;;;;;7.13;2.80;;;-0.20;98.70;;;;;;5057125;28;20060;-87
2022/01/29 22:15:06;;;;;;;6.90;3.22;;;-0.20;98.90;;;;;;5056954;28;20028;-87
2022/01/29 22:17:33;;;;;;;4.65;2.47;;;-0.20;97.50;;;;;;5056883;28;20435;-87
2022/01/29 22:19:59;;;;;;;4.45;2.70;;;-0.20;98.40;;;;;;5074536;28;20028;-87
2022/01/29 22:22:24;;;;;;;9.90;3.92;;;-0.20;97.90;;;;;;5056744;28;20024;-88
2022/01/29 22:24:50;;;;;;;9.75;3.75;;;-0.20;97.00;;;;;;5056823;28;20038;-87
2022/01/29 22:27:21;;;;;;;10.02;3.47;;;-0.20;97.90;;;;;;5057052;28;20433;-87
2022/01/29 22:29:47;;;;;;;7.07;3.47;;;-0.30;97.20;;;;;;5074516;28;20024;-87
2022/01/29 22:32:13;;;;;;;8.70;3.78;;;-0.20;97.50;;;;;;5056595;28;20024;-87
2022/01/29 22:34:39;;;;;;;7.20;3.95;;;-0.20;97.50;;;;;;5056660;28;20467;-87
2022/01/29 22:37:05;;;;;;;5.60;2.50;;;-0.30;97.90;;;;;;5056494;28;20029;-87
2022/01/29 22:39:32;;;;;;;5.57;3.35;;;-0.20;97.80;;;;;;5056507;28;20036;-87
2022/01/29 22:41:59;;;;;;;7.03;3.03;;;-0.20;98.20;;;;;;5056443;28;20044;-87
2022/01/29 22:44:24;;;;;;;10.07;4.85;;;-0.20;98.40;;;;;;5056726;28;20020;-87
2022/01/29 22:46:50;;;;;;;11.15;4.72;;;-0.20;98.40;;;;;;5056560;28;20021;-87
2022/01/29 22:49:17;;;;;;;8.68;3.63;;;-0.20;98.40;;;;;;5056408;28;20115;-87
2022/01/29 22:51:42;;;;;;;8.25;3.47;;;-0.20;98.40;;;;;;5056291;28;20031;-87
2022/01/29 22:54:09;;;;;;;9.82;3.97;;;-0.20;98.80;;;;;;5056372;28;20029;-87
2022/01/29 22:56:37;;;;;;;8.80;4.03;;;-0.20;98.50;;;;;;5056247;28;20024;-87
2022/01/29 22:59:04;;;;;;;4.32;2.83;;;-0.20;99.00;;;;;;5056440;28;20112;-87
2022/01/29 23:01:31;;;;;;;6.15;3.10;;;-0.10;98.20;;;;;;5062446;28;20048;-87
2022/01/29 23:03:58;;;;;;;3.85;3.00;;;-0.10;98.20;;;;;;5073112;28;20082;-87
2022/01/29 23:06:24;;;;;;;5.90;3.30;;;-0.10;98.40;;;;;;5072800;28;20382;-87
2022/01/29 23:08:51;;;;;;;9.73;2.72;;;-0.10;98.70;;;;;;5073005;28;20359;-87
2022/01/29 23:11:25;;;;;;;10.00;3.92;;;-0.10;99.00;;;;;;5072826;28;20032;-86
2022/01/29 23:13:59;;;;;;;10.02;4.47;;;-0.10;99.00;;;;;;5072952;28;20029;-87
2022/01/29 23:24:52;;;;;;;7.07;3.90;;;-0.20;99.20;;;;;;5054050;28;20059;-86
2022/01/29 23:27:17;;;;;;;11.85;4.68;;;-0.20;99.10;;;;;;5076783;28;20044;-87
2022/01/29 23:29:46;;;;;;;6.03;3.70;;;-0.20;99.50;;;;;;5076940;28;20415;-86
2022/01/29 23:32:16;;;;;;;13.18;6.93;;;-0.20;99.40;;;;;;5077916;28;20055;-86
2022/01/29 23:34:47;;;;;;;6.63;3.10;;;-0.20;99.70;;;;;;5076864;28;20035;-87
2022/01/29 23:39:53;;;;;;;5.03;3.42;;;-0.30;99.70;;;;;;5078085;28;20115;-86
2022/01/29 23:45:22;;;;;;;7.13;3.92;;;-0.20;99.90;;;;;;5077710;28;20544;-87
2022/01/29 23:50:54;;;;;;;8.77;4.85;;;-0.20;99.90;;;;;;5036015;28;20032;-87
2022/01/29 23:53:22;;;;;;;4.80;2.85;;;-0.20;99.90;;;;;;5035681;28;20048;-87
2022/01/29 23:55:49;;;;;;;4.50;3.20;;;-0.30;99.90;;;;;;5045537;28;20581;-87
2022/01/29 23:58:15;;;;;;;8.02;3.20;;;-0.40;99.90;;;;;;5077398;28;20028;-87
